createdAt,value
2023-02-23T00:02:17.170Z,73.17
2023-02-23T00:05:20.338Z,72.96
2023-02-23T00:08:24.078Z,72.76
2023-02-23T00:11:28.616Z,72.86
2023-02-23T00:14:32.039Z,72.87
2023-02-23T00:17:36.986Z,72.55
2023-02-23T00:20:44.669Z,72.52
2023-02-23T00:23:51.167Z,72.40
2023-02-23T00:26:54.331Z,72.49
2023-02-23T00:29:57.610Z,72.35
2023-02-23T00:33:00.568Z,72.18
2023-02-23T00:36:06.249Z,72.55
2023-02-23T00:39:32.696Z,72.55
2023-02-23T00:42:36.279Z,72.10
2023-02-23T00:45:39.314Z,72.22
2023-02-23T00:48:44.895Z,72.84
2023-02-23T00:51:48.216Z,72.86
2023-02-23T00:54:52.684Z,73.01
2023-02-23T00:57:55.858Z,72.67
2023-02-23T01:01:00.509Z,72.87
2023-02-23T01:04:03.809Z,72.98
2023-02-23T01:07:07.319Z,72.67
2023-02-23T01:10:20.636Z,73.41
2023-02-23T01:13:26.267Z,73.80
2023-02-23T01:16:32.272Z,73.46
2023-02-23T01:19:35.555Z,74.31
2023-02-23T01:22:39.262Z,74.11
2023-02-23T01:25:44.094Z,74.49
2023-02-23T01:28:51.434Z,74.79
2023-02-23T01:31:55.796Z,74.73
2023-02-23T01:35:01.375Z,74.62
2023-02-23T01:38:04.939Z,74.42
2023-02-23T01:41:09.185Z,74.28
2023-02-23T01:44:15.444Z,74.11
2023-02-23T01:47:20.601Z,73.74
2023-02-23T01:50:28.393Z,73.69
2023-02-23T01:53:34.233Z,73.52
2023-02-23T01:56:45.107Z,73.42
2023-02-23T01:59:51.146Z,73.10
2023-02-23T02:02:58.329Z,72.83
2023-02-23T02:06:05.030Z,72.50
2023-02-23T02:09:10.527Z,72.46
2023-02-23T02:12:15.081Z,73.18
2023-02-23T02:15:20.884Z,73.20
2023-02-23T02:18:56.601Z,72.69
2023-02-23T02:22:17.731Z,72.54
2023-02-23T02:25:42.770Z,72.89
2023-02-23T02:28:46.435Z,72.69
2023-02-23T02:32:16.981Z,72.51
2023-02-23T02:35:47.577Z,72.86
2023-02-23T02:38:56.404Z,72.46
2023-02-23T02:42:31.659Z,72.09
2023-02-23T02:45:44.444Z,72.16
2023-02-23T02:49:14.160Z,72.39
2023-02-23T02:52:23.685Z,71.95
2023-02-23T02:55:34.607Z,71.80
2023-02-23T02:58:39.220Z,71.79
2023-02-23T03:02:02.474Z,71.55
2023-02-23T03:05:35.646Z,71.69
2023-02-23T03:09:07.271Z,71.50
2023-02-23T03:12:41.077Z,71.13
2023-02-23T03:16:15.064Z,70.87
2023-02-23T03:19:47.314Z,71.05
2023-02-23T03:23:31.342Z,70.40
2023-02-23T03:27:00.027Z,70.35
2023-02-23T03:30:59.557Z,69.95
2023-02-23T03:34:34.540Z,69.89
2023-02-23T03:38:02.981Z,69.67
2023-02-23T03:41:26.686Z,69.82
2023-02-23T03:44:52.135Z,69.71
2023-02-23T03:48:15.128Z,69.89
2023-02-23T03:51:37.438Z,69.72
2023-02-23T03:55:04.457Z,69.38
2023-02-23T03:58:28.738Z,69.52
2023-02-23T04:01:52.381Z,69.63
2023-02-23T04:05:16.360Z,69.63
2023-02-23T04:08:38.872Z,69.64
2023-02-23T04:12:11.244Z,69.69
2023-02-23T04:16:09.603Z,69.66
2023-02-23T04:19:12.951Z,69.75
2023-02-23T04:22:16.042Z,70.16
2023-02-23T04:25:23.028Z,70.27
2023-02-23T04:28:27.899Z,70.11
2023-02-23T04:31:31.204Z,70.33
2023-02-23T04:34:34.438Z,70.46
2023-02-23T04:37:38.910Z,70.41
2023-02-23T04:40:42.133Z,70.67
2023-02-23T04:43:45.445Z,70.41
2023-02-23T04:46:48.488Z,70.16
2023-02-23T04:49:51.802Z,70.45
2023-02-23T04:52:54.681Z,70.60
2023-02-23T04:55:58.125Z,69.96
2023-02-23T04:59:01.223Z,70.28
2023-02-23T05:02:04.738Z,70.23
2023-02-23T05:05:09.446Z,70.56
2023-02-23T05:08:12.787Z,70.16
2023-02-23T05:11:15.866Z,69.94
2023-02-23T05:14:19.354Z,70.06
2023-02-23T05:17:22.333Z,70.17
2023-02-23T05:20:27.066Z,70.34
2023-02-23T05:23:31.498Z,70.38
2023-02-23T05:26:35.096Z,70.30
2023-02-23T05:29:38.700Z,70.30
2023-02-23T05:32:42.025Z,70.29
2023-02-23T05:35:45.179Z,70.22
2023-02-23T05:38:49.372Z,70.26
2023-02-23T05:41:52.644Z,69.93
2023-02-23T05:44:55.911Z,70.23
2023-02-23T05:47:59.245Z,70.33
2023-02-23T05:51:04.300Z,70.04
2023-02-23T05:54:07.730Z,70.33
2023-02-23T05:57:10.974Z,70.38
2023-02-23T06:00:18.255Z,70.58
2023-02-23T06:03:22.762Z,70.13
2023-02-23T06:06:25.938Z,70.42
2023-02-23T06:09:29.180Z,70.47
2023-02-23T06:12:32.467Z,70.21
2023-02-23T06:15:37.530Z,70.04
2023-02-23T06:18:41.886Z,69.99
2023-02-23T06:21:45.092Z,70.13
2023-02-23T06:24:49.816Z,69.88
2023-02-23T06:27:52.991Z,71.40
2023-02-23T06:30:56.176Z,69.44
2023-02-23T06:33:59.231Z,69.56
2023-02-23T06:37:01.970Z,68.95
2023-02-23T06:40:05.801Z,68.56
2023-02-23T06:43:08.937Z,68.22
2023-02-23T06:46:12.200Z,68.02
2023-02-23T06:49:16.641Z,67.70
2023-02-23T06:52:19.956Z,67.09
2023-02-23T06:55:22.888Z,67.02
2023-02-23T06:58:26.337Z,66.75
2023-02-23T07:01:30.381Z,66.87
2023-02-23T07:04:35.403Z,66.19
2023-02-23T07:07:38.401Z,66.35
2023-02-23T07:10:42.969Z,66.13
2023-02-23T07:13:45.983Z,66.08
2023-02-23T07:16:49.357Z,66.24
2023-02-23T07:19:52.319Z,65.60
2023-02-23T07:22:55.504Z,66.15
2023-02-23T07:26:00.615Z,66.01
2023-02-23T07:29:04.153Z,64.87
2023-02-23T07:32:07.770Z,64.75
2023-02-23T07:35:11.057Z,64.25
2023-02-23T07:38:14.033Z,64.38
2023-02-23T07:41:17.754Z,63.26
2023-02-23T07:44:21.052Z,63.17
2023-02-23T07:47:31.021Z,62.75
2023-02-23T07:50:34.034Z,62.33
2023-02-23T07:53:38.041Z,61.22
2023-02-23T07:56:40.938Z,62.11
2023-02-23T07:59:45.745Z,61.00
2023-02-23T08:02:48.753Z,60.63
2023-02-23T08:05:53.419Z,59.95
2023-02-23T08:08:56.401Z,60.15
2023-02-23T08:11:59.602Z,60.66
2023-02-23T08:15:03.278Z,59.07
2023-02-23T08:18:06.663Z,59.14
2023-02-23T08:21:09.628Z,58.72
2023-02-23T08:24:12.820Z,58.63
2023-02-23T08:27:15.832Z,57.74
2023-02-23T08:30:23.284Z,58.40
2023-02-23T08:33:26.415Z,57.42
2023-02-23T08:36:29.609Z,57.26
2023-02-23T08:39:32.567Z,57.12
2023-02-23T08:42:35.724Z,55.86
2023-02-23T08:45:39.906Z,56.77
2023-02-23T08:48:43.079Z,56.22
2023-02-23T08:51:47.264Z,55.52
2023-02-23T08:54:51.893Z,56.94
2023-02-23T08:57:54.930Z,55.87
2023-02-23T09:00:58.501Z,56.18
2023-02-23T09:04:01.542Z,56.24
2023-02-23T09:07:05.509Z,56.00
2023-02-23T09:10:09.279Z,55.94
2023-02-23T09:13:12.930Z,55.66
2023-02-23T09:16:16.371Z,55.24
2023-02-23T09:19:20.327Z,54.91
2023-02-23T09:22:23.432Z,54.54
2023-02-23T09:25:29.350Z,53.52
2023-02-23T09:28:34.040Z,53.97
2023-02-23T09:31:39.003Z,54.02
2023-02-23T09:34:42.066Z,53.83
2023-02-23T09:37:48.089Z,53.34
2023-02-23T09:40:53.563Z,53.89
2023-02-23T09:44:22.324Z,53.21
2023-02-23T09:47:49.883Z,53.48
2023-02-23T09:50:57.783Z,54.10
2023-02-23T09:54:01.232Z,53.54
2023-02-23T09:57:09.360Z,52.38
2023-02-23T10:00:17.347Z,52.63
2023-02-23T10:03:28.545Z,52.81
2023-02-23T10:06:32.852Z,51.80
2023-02-23T10:09:46.477Z,52.24
2023-02-23T10:12:57.540Z,51.03
2023-02-23T10:16:23.013Z,52.67
2023-02-23T10:19:44.775Z,51.88
2023-02-23T10:22:49.429Z,51.88
2023-02-23T10:25:56.356Z,51.66
2023-02-23T10:29:00.093Z,51.22
2023-02-23T10:32:20.261Z,52.12
2023-02-23T10:35:26.878Z,51.71
2023-02-23T10:38:31.328Z,50.78
2023-02-23T10:41:38.354Z,50.35
2023-02-23T10:44:44.294Z,50.33
2023-02-23T10:48:02.266Z,50.87
2023-02-23T10:51:06.110Z,51.53
2023-02-23T10:54:38.962Z,51.79
2023-02-23T10:57:42.067Z,51.98
2023-02-23T11:00:54.812Z,50.67
2023-02-23T11:04:06.000Z,50.86
2023-02-23T11:07:21.215Z,51.00
2023-02-23T11:10:27.476Z,50.43
2023-02-23T11:13:36.872Z,50.61
2023-02-23T11:16:40.319Z,53.88
2023-02-23T11:19:43.968Z,52.33
2023-02-23T11:22:47.649Z,50.66
2023-02-23T11:25:55.905Z,49.76
2023-02-23T11:29:01.994Z,51.19
2023-02-23T11:32:19.321Z,52.02
2023-02-23T11:35:22.192Z,51.59
2023-02-23T11:38:34.845Z,51.40
2023-02-23T11:41:37.853Z,51.12
2023-02-23T11:44:41.401Z,51.59
2023-02-23T11:47:49.935Z,51.04
2023-02-23T11:50:53.994Z,52.04
2023-02-23T11:53:57.620Z,51.35
2023-02-23T11:57:02.816Z,51.39
2023-02-23T12:00:12.549Z,52.09
2023-02-23T12:03:22.297Z,51.92
2023-02-23T12:06:30.654Z,52.49
2023-02-23T12:09:36.884Z,52.70
2023-02-23T12:12:47.343Z,53.90
2023-02-23T12:16:03.696Z,53.31
2023-02-23T12:19:25.526Z,55.17
2023-02-23T12:22:41.751Z,54.62
2023-02-23T12:25:54.840Z,53.51
2023-02-23T12:29:06.266Z,53.60
2023-02-23T12:32:14.505Z,53.54
2023-02-23T12:35:27.052Z,52.83
2023-02-23T12:38:55.188Z,53.06
2023-02-23T12:42:04.996Z,52.02
2023-02-23T12:45:17.545Z,53.19
2023-02-23T12:48:45.320Z,53.18
2023-02-23T12:52:00.878Z,53.33
2023-02-23T12:55:06.400Z,52.63
2023-02-23T12:58:35.347Z,52.61
2023-02-23T13:01:44.634Z,52.66
2023-02-23T13:05:24.654Z,52.63
2023-02-23T13:08:51.246Z,51.70
2023-02-23T13:12:06.372Z,51.38
2023-02-23T13:15:46.811Z,52.30
2023-02-23T13:19:21.228Z,52.38
2023-02-23T13:22:27.270Z,52.21
2023-02-23T13:25:45.742Z,52.16
2023-02-23T13:28:56.691Z,52.62
2023-02-23T13:32:01.775Z,52.31
2023-02-23T13:35:18.015Z,52.70
2023-02-23T13:38:45.511Z,53.12
2023-02-23T13:42:09.894Z,53.23
2023-02-23T13:45:31.581Z,53.55
2023-02-23T13:48:57.454Z,53.57
2023-02-23T13:52:14.299Z,53.25
2023-02-23T13:55:29.404Z,53.36
2023-02-23T13:58:36.774Z,53.20
2023-02-23T14:01:44.759Z,52.87
2023-02-23T14:04:47.998Z,52.48
2023-02-23T14:07:56.200Z,53.06
2023-02-23T14:10:59.229Z,52.84
2023-02-23T14:14:03.268Z,52.94
2023-02-23T14:17:32.475Z,52.41
2023-02-23T14:20:49.764Z,52.09
2023-02-23T14:24:14.064Z,52.44
2023-02-23T14:27:42.055Z,52.49
2023-02-23T14:30:51.399Z,52.69
2023-02-23T14:34:00.175Z,51.96
2023-02-23T14:37:15.645Z,51.86
2023-02-23T14:40:23.268Z,52.33
2023-02-23T14:43:32.971Z,52.71
2023-02-23T14:46:37.278Z,51.97
2023-02-23T14:50:01.194Z,52.28
2023-02-23T14:53:06.981Z,52.77
2023-02-23T14:56:24.670Z,52.82
2023-02-23T14:59:37.726Z,53.09
2023-02-23T15:02:54.408Z,53.17
2023-02-23T15:06:00.234Z,53.19
2023-02-23T15:09:03.797Z,53.30
2023-02-23T15:12:35.694Z,53.65
2023-02-23T15:15:45.575Z,53.45
2023-02-23T15:19:29.337Z,54.08
2023-02-23T15:22:35.591Z,54.72
2023-02-23T15:25:40.627Z,54.51
2023-02-23T15:28:47.391Z,54.73
2023-02-23T15:31:53.384Z,54.67
2023-02-23T15:34:57.169Z,54.95
2023-02-23T15:38:11.533Z,56.20
2023-02-23T15:41:27.139Z,56.26
2023-02-23T15:44:43.703Z,56.03
2023-02-23T15:47:47.808Z,56.07
2023-02-23T15:50:53.704Z,56.31
2023-02-23T15:53:57.849Z,56.17
2023-02-23T15:57:07.569Z,56.23
2023-02-23T16:00:32.534Z,57.54
2023-02-23T16:03:44.570Z,57.16
2023-02-23T16:06:55.286Z,58.17
2023-02-23T16:10:19.194Z,58.12
2023-02-23T16:13:22.765Z,57.67
2023-02-23T16:16:27.990Z,58.24
2023-02-23T16:19:31.974Z,58.72
2023-02-23T16:22:36.789Z,58.91
2023-02-23T16:25:43.060Z,59.90
2023-02-23T16:28:47.210Z,61.02
2023-02-23T16:31:58.183Z,60.94
2023-02-23T16:35:09.567Z,61.49
2023-02-23T16:38:27.131Z,62.00
2023-02-23T16:41:33.632Z,61.83
2023-02-23T16:44:43.527Z,62.53
2023-02-23T16:47:49.953Z,63.58
2023-02-23T16:50:53.438Z,63.12
2023-02-23T16:53:58.711Z,63.16
2023-02-23T16:57:02.027Z,63.25
2023-02-23T17:00:15.368Z,62.55
2023-02-23T17:03:24.655Z,61.90
2023-02-23T17:06:28.043Z,61.62
2023-02-23T17:09:31.647Z,61.45
2023-02-23T17:12:35.668Z,62.39
2023-02-23T17:15:48.375Z,62.69
2023-02-23T17:18:52.294Z,62.30
2023-02-23T17:22:00.339Z,62.40
2023-02-23T17:25:06.490Z,62.08
2023-02-23T17:28:10.535Z,63.28
2023-02-23T17:31:15.344Z,63.30
2023-02-23T17:34:19.167Z,62.38
2023-02-23T17:37:23.326Z,61.91
2023-02-23T17:40:31.782Z,61.52
2023-02-23T17:43:38.343Z,62.16
2023-02-23T17:46:51.753Z,61.84
2023-02-23T17:49:55.793Z,61.15
2023-02-23T17:52:59.289Z,61.25
2023-02-23T17:56:04.091Z,62.37
2023-02-23T17:59:10.733Z,63.34
2023-02-23T18:02:20.383Z,64.14
2023-02-23T18:05:24.872Z,64.63
2023-02-23T18:08:29.225Z,65.26
2023-02-23T18:11:34.667Z,65.45
2023-02-23T18:14:38.621Z,65.86
2023-02-23T18:17:43.776Z,65.84
2023-02-23T18:20:51.721Z,66.27
2023-02-23T18:23:56.214Z,64.92
2023-02-23T18:27:03.836Z,64.38
2023-02-23T18:30:11.111Z,63.22
2023-02-23T18:33:16.861Z,63.05
2023-02-23T18:36:30.124Z,63.15
2023-02-23T18:39:34.991Z,62.99
2023-02-23T18:42:40.346Z,62.34
2023-02-23T18:45:45.324Z,62.58
2023-02-23T18:48:51.648Z,62.55
2023-02-23T18:51:58.588Z,62.50
2023-02-23T18:55:02.325Z,62.33
2023-02-23T18:58:07.981Z,62.78
2023-02-23T19:01:20.266Z,63.86
2023-02-23T19:04:25.018Z,64.24
2023-02-23T19:07:31.223Z,63.17
2023-02-23T19:10:37.619Z,62.86
2023-02-23T19:13:48.281Z,63.85
2023-02-23T19:16:52.878Z,63.61
2023-02-23T19:19:58.276Z,63.18
2023-02-23T19:23:06.621Z,64.26
2023-02-23T19:26:13.398Z,65.08
2023-02-23T19:29:18.216Z,65.82
2023-02-23T19:32:22.982Z,65.68
2023-02-23T19:35:27.539Z,66.95
2023-02-23T19:38:34.105Z,67.43
2023-02-23T19:41:40.545Z,66.95
2023-02-23T19:44:47.640Z,65.72
2023-02-23T19:47:55.625Z,65.17
2023-02-23T19:51:01.061Z,65.55
2023-02-23T19:54:08.302Z,67.24
2023-02-23T19:57:13.129Z,67.55
2023-02-23T20:00:18.572Z,67.77
2023-02-23T20:03:28.795Z,68.06
2023-02-23T20:06:36.737Z,68.47
2023-02-23T20:09:42.036Z,68.33
2023-02-23T20:12:49.880Z,68.28
2023-02-23T20:16:06.883Z,68.54
2023-02-23T20:19:12.157Z,68.44
2023-02-23T20:22:16.923Z,68.75
2023-02-23T20:25:23.230Z,68.32
2023-02-23T20:28:28.445Z,67.48
2023-02-23T20:31:36.080Z,67.09
2023-02-23T20:34:41.591Z,68.22
2023-02-23T20:37:46.963Z,67.32
2023-02-23T20:40:52.329Z,67.97
2023-02-23T20:43:58.349Z,68.09
2023-02-23T20:47:03.872Z,65.84
2023-02-23T20:50:11.500Z,67.62
2023-02-23T20:53:15.624Z,67.60
2023-02-23T20:56:22.567Z,67.20
2023-02-23T20:59:31.463Z,66.21
2023-02-23T21:02:36.778Z,67.04
2023-02-23T21:05:42.410Z,66.18
2023-02-23T21:08:49.323Z,67.87
2023-02-23T21:11:54.034Z,68.14
2023-02-23T21:14:58.729Z,68.22
2023-02-23T21:18:03.613Z,68.67
2023-02-23T21:21:10.151Z,68.93
2023-02-23T21:24:17.513Z,67.01
2023-02-23T21:27:24.139Z,66.80
2023-02-23T21:30:29.183Z,68.13
2023-02-23T21:33:33.258Z,67.50
2023-02-23T21:36:38.325Z,66.21
2023-02-23T21:39:42.469Z,64.71
2023-02-23T21:42:48.119Z,63.40
2023-02-23T21:45:51.779Z,63.19
2023-02-23T21:48:55.559Z,63.46
2023-02-23T21:51:59.679Z,62.63
2023-02-23T21:55:07.878Z,62.22
2023-02-23T21:58:16.706Z,62.04
2023-02-23T22:01:26.428Z,61.51
2023-02-23T22:04:29.988Z,61.42
2023-02-23T22:07:32.970Z,62.34
2023-02-23T22:10:36.231Z,63.01
2023-02-23T22:13:39.160Z,62.64
2023-02-23T22:16:42.744Z,61.97
2023-02-23T22:19:45.984Z,62.23
2023-02-23T22:22:53.039Z,61.57
2023-02-23T22:25:55.974Z,60.90
2023-02-23T22:28:59.183Z,61.84
2023-02-23T22:32:02.754Z,61.84
2023-02-23T22:35:07.369Z,61.60
2023-02-23T22:38:10.349Z,61.32
2023-02-23T22:41:13.976Z,63.02
2023-02-23T22:44:19.527Z,61.14
2023-02-23T22:47:23.787Z,61.10
2023-02-23T22:50:27.225Z,61.00
2023-02-23T22:53:31.027Z,61.09
2023-02-23T22:56:36.576Z,60.91
2023-02-23T22:59:39.825Z,60.75
2023-02-23T23:02:43.194Z,60.85
2023-02-23T23:05:51.195Z,60.38
2023-02-23T23:08:56.530Z,60.55
2023-02-23T23:11:59.804Z,60.34
2023-02-23T23:15:04.149Z,60.93
2023-02-23T23:18:14.512Z,60.77
2023-02-23T23:21:22.132Z,60.68
2023-02-23T23:24:25.833Z,61.56
2023-02-23T23:27:28.822Z,60.64
2023-02-23T23:30:35.444Z,60.78
2023-02-23T23:33:47.778Z,60.55
2023-02-23T23:36:53.292Z,60.79
2023-02-23T23:39:59.424Z,60.86
2023-02-23T23:43:02.656Z,60.63
2023-02-23T23:46:06.544Z,60.46
2023-02-23T23:49:13.493Z,60.74
2023-02-23T23:52:17.962Z,61.00
2023-02-23T23:55:21.416Z,60.62
2023-02-23T23:58:26.859Z,61.15
